Witch Wells, Arizona
Current Conditions -  °F | °C
As of 1:54 AM on Sunday 23 Nov 2014 (Local Time) from KSJN Reporting Station
Clear Clear  
Wind Chill: 39°   Ceiling: Unl
Heat Index: 46°   Visibility: 10mi
Dew Point: 20°   Wind: 18mph
Humidity: 35%   Direction: 260°W
Pressure: 29.91"   Gusts: 23mph
Location:  34.4981°N, 109.241°W
Report Text: KSJN 230854Z AUTO 26016G20KT 10SM CLR 08/M07 A2991 RMK AO2 PK WND 26030/0808 SLP078 T00781067 55002
Loading
Personal Weather Stations






























Interactive Weather Map New forecast layout! Learn more

10-Day Weather Forecast

Advertisements
Track Severe Weather on mobile